sensor_id;sensor_type;location;lat;lon;timestamp;P1;durP1;ratioP1;P2;durP2;ratioP2
71236;SDS011;58984;51.960;5.582;2022-11-20T00:01:10;17.40;;;12.75;;
71236;SDS011;58984;51.960;5.582;2022-11-20T00:03:36;19.67;;;11.88;;
71236;SDS011;58984;51.960;5.582;2022-11-20T00:06:06;17.88;;;12.45;;
71236;SDS011;58984;51.960;5.582;2022-11-20T00:08:33;17.13;;;11.57;;
71236;SDS011;58984;51.960;5.582;2022-11-20T00:11:06;19.05;;;11.88;;
71236;SDS011;58984;51.960;5.582;2022-11-20T00:13:36;16.00;;;11.60;;
71236;SDS011;58984;51.960;5.582;2022-11-20T00:16:02;16.88;;;12.20;;
71236;SDS011;58984;51.960;5.582;2022-11-20T00:18:29;20.00;;;12.90;;
71236;SDS011;58984;51.960;5.582;2022-11-20T00:21:06;21.63;;;13.20;;
71236;SDS011;58984;51.960;5.582;2022-11-20T00:23:35;17.92;;;12.63;;
71236;SDS011;58984;51.960;5.582;2022-11-20T00:26:04;18.55;;;12.40;;
71236;SDS011;58984;51.960;5.582;2022-11-20T00:28:32;19.23;;;13.07;;
71236;SDS011;58984;51.960;5.582;2022-11-20T00:31:01;15.50;;;11.45;;
71236;SDS011;58984;51.960;5.582;2022-11-20T00:33:29;16.35;;;11.63;;
71236;SDS011;58984;51.960;5.582;2022-11-20T00:35:58;18.45;;;12.45;;
71236;SDS011;58984;51.960;5.582;2022-11-20T00:38:28;20.10;;;11.88;;
71236;SDS011;58984;51.960;5.582;2022-11-20T00:40:56;16.02;;;12.23;;
71236;SDS011;58984;51.960;5.582;2022-11-20T00:43:25;19.23;;;11.82;;
71236;SDS011;58984;51.960;5.582;2022-11-20T00:45:56;20.92;;;12.57;;
71236;SDS011;58984;51.960;5.582;2022-11-20T00:48:32;19.75;;;12.23;;
71236;SDS011;58984;51.960;5.582;2022-11-20T00:50:58;16.50;;;12.52;;
71236;SDS011;58984;51.960;5.582;2022-11-20T00:53:24;18.25;;;13.07;;
71236;SDS011;58984;51.960;5.582;2022-11-20T00:55:56;19.98;;;12.57;;
71236;SDS011;58984;51.960;5.582;2022-11-20T00:58:24;20.35;;;13.20;;
71236;SDS011;58984;51.960;5.582;2022-11-20T01:00:53;17.13;;;11.82;;
71236;SDS011;58984;51.960;5.582;2022-11-20T01:03:24;19.15;;;13.80;;
71236;SDS011;58984;51.960;5.582;2022-11-20T01:05:49;17.80;;;13.23;;
71236;SDS011;58984;51.960;5.582;2022-11-20T01:08:15;17.42;;;12.70;;
71236;SDS011;58984;51.960;5.582;2022-11-20T01:10:40;21.42;;;13.88;;
71236;SDS011;58984;51.960;5.582;2022-11-20T01:13:07;20.45;;;13.77;;
71236;SDS011;58984;51.960;5.582;2022-11-20T01:15:51;21.30;;;14.00;;
71236;SDS011;58984;51.960;5.582;2022-11-20T01:18:17;18.77;;;13.88;;
71236;SDS011;58984;51.960;5.582;2022-11-20T01:20:42;20.27;;;13.00;;
71236;SDS011;58984;51.960;5.582;2022-11-20T01:23:08;23.00;;;13.90;;
71236;SDS011;58984;51.960;5.582;2022-11-20T01:25:34;22.23;;;14.43;;
71236;SDS011;58984;51.960;5.582;2022-11-20T01:28:00;22.35;;;14.60;;
71236;SDS011;58984;51.960;5.582;2022-11-20T01:30:25;19.05;;;13.98;;
71236;SDS011;58984;51.960;5.582;2022-11-20T01:32:51;24.63;;;14.65;;
71236;SDS011;58984;51.960;5.582;2022-11-20T01:35:16;21.42;;;15.38;;
71236;SDS011;58984;51.960;5.582;2022-11-20T01:37:42;22.17;;;14.60;;
71236;SDS011;58984;51.960;5.582;2022-11-20T01:40:08;23.88;;;14.40;;
71236;SDS011;58984;51.960;5.582;2022-11-20T01:42:34;21.95;;;15.15;;
71236;SDS011;58984;51.960;5.582;2022-11-20T01:48:19;22.10;;;16.40;;
71236;SDS011;58984;51.960;5.582;2022-11-20T01:50:48;26.27;;;16.30;;
71236;SDS011;58984;51.960;5.582;2022-11-20T01:53:16;24.60;;;16.25;;
71236;SDS011;58984;51.960;5.582;2022-11-20T01:55:45;22.25;;;15.57;;
71236;SDS011;58984;51.960;5.582;2022-11-20T01:58:14;19.60;;;15.43;;
71236;SDS011;58984;51.960;5.582;2022-11-20T02:00:41;23.13;;;15.20;;
71236;SDS011;58984;51.960;5.582;2022-11-20T02:03:09;27.17;;;15.63;;
71236;SDS011;58984;51.960;5.582;2022-11-20T02:05:40;23.70;;;15.15;;
71236;SDS011;58984;51.960;5.582;2022-11-20T02:08:14;25.27;;;15.23;;
71236;SDS011;58984;51.960;5.582;2022-11-20T02:10:40;22.52;;;14.85;;
71236;SDS011;58984;51.960;5.582;2022-11-20T02:13:06;24.17;;;15.60;;
71236;SDS011;58984;51.960;5.582;2022-11-20T02:15:51;21.17;;;14.15;;
71236;SDS011;58984;51.960;5.582;2022-11-20T02:18:17;24.60;;;15.45;;
71236;SDS011;58984;51.960;5.582;2022-11-20T02:20:45;27.20;;;15.68;;
71236;SDS011;58984;51.960;5.582;2022-11-20T02:23:17;22.08;;;15.77;;
71236;SDS011;58984;51.960;5.582;2022-11-20T02:25:47;24.33;;;15.98;;
71236;SDS011;58984;51.960;5.582;2022-11-20T02:28:16;24.35;;;15.00;;
71236;SDS011;58984;51.960;5.582;2022-11-20T02:30:42;24.15;;;16.25;;
71236;SDS011;58984;51.960;5.582;2022-11-20T02:33:08;26.75;;;15.85;;
71236;SDS011;58984;51.960;5.582;2022-11-20T02:38:00;28.65;;;16.55;;
71236;SDS011;58984;51.960;5.582;2022-11-20T02:40:27;25.90;;;15.05;;
71236;SDS011;58984;51.960;5.582;2022-11-20T02:42:54;23.10;;;16.40;;
71236;SDS011;58984;51.960;5.582;2022-11-20T02:45:21;25.05;;;16.40;;
71236;SDS011;58984;51.960;5.582;2022-11-20T02:47:47;25.00;;;15.98;;
71236;SDS011;58984;51.960;5.582;2022-11-20T02:50:13;24.25;;;15.95;;
71236;SDS011;58984;51.960;5.582;2022-11-20T02:52:39;26.17;;;15.95;;
71236;SDS011;58984;51.960;5.582;2022-11-20T02:55:05;26.67;;;16.88;;
71236;SDS011;58984;51.960;5.582;2022-11-20T02:57:31;27.15;;;15.82;;
71236;SDS011;58984;51.960;5.582;2022-11-20T02:59:56;28.00;;;16.20;;
71236;SDS011;58984;51.960;5.582;2022-11-20T03:02:22;23.55;;;15.70;;
71236;SDS011;58984;51.960;5.582;2022-11-20T03:04:48;24.88;;;15.40;;
71236;SDS011;58984;51.960;5.582;2022-11-20T03:07:13;25.60;;;16.00;;
71236;SDS011;58984;51.960;5.582;2022-11-20T03:09:39;27.67;;;16.35;;
71236;SDS011;58984;51.960;5.582;2022-11-20T03:12:04;23.40;;;15.13;;
71236;SDS011;58984;51.960;5.582;2022-11-20T03:14:30;24.65;;;16.27;;
71236;SDS011;58984;51.960;5.582;2022-11-20T03:16:56;24.98;;;16.00;;
71236;SDS011;58984;51.960;5.582;2022-11-20T03:19:22;29.42;;;15.93;;
71236;SDS011;58984;51.960;5.582;2022-11-20T03:21:48;22.67;;;15.65;;
71236;SDS011;58984;51.960;5.582;2022-11-20T03:24:13;23.92;;;15.93;;
71236;SDS011;58984;51.960;5.582;2022-11-20T03:26:39;23.50;;;16.23;;
71236;SDS011;58984;51.960;5.582;2022-11-20T03:29:05;22.52;;;16.35;;
71236;SDS011;58984;51.960;5.582;2022-11-20T03:31:35;22.95;;;16.23;;
71236;SDS011;58984;51.960;5.582;2022-11-20T03:34:05;25.98;;;14.75;;
71236;SDS011;58984;51.960;5.582;2022-11-20T03:36:31;22.83;;;14.93;;
71236;SDS011;58984;51.960;5.582;2022-11-20T03:38:57;20.60;;;14.38;;
71236;SDS011;58984;51.960;5.582;2022-11-20T03:41:23;25.83;;;14.85;;
71236;SDS011;58984;51.960;5.582;2022-11-20T03:43:52;25.92;;;14.70;;
71236;SDS011;58984;51.960;5.582;2022-11-20T03:46:19;18.90;;;14.07;;
71236;SDS011;58984;51.960;5.582;2022-11-20T03:48:45;23.10;;;14.73;;
71236;SDS011;58984;51.960;5.582;2022-11-20T03:51:15;19.42;;;14.90;;
71236;SDS011;58984;51.960;5.582;2022-11-20T03:53:43;17.55;;;13.20;;
71236;SDS011;58984;51.960;5.582;2022-11-20T03:56:11;24.35;;;14.30;;
71236;SDS011;58984;51.960;5.582;2022-11-20T03:58:40;19.95;;;14.27;;
71236;SDS011;58984;51.960;5.582;2022-11-20T04:03:33;22.20;;;14.77;;
71236;SDS011;58984;51.960;5.582;2022-11-20T04:06:04;27.30;;;14.50;;
71236;SDS011;58984;51.960;5.582;2022-11-20T04:08:34;22.88;;;13.95;;
71236;SDS011;58984;51.960;5.582;2022-11-20T04:13:59;21.35;;;13.55;;
71236;SDS011;58984;51.960;5.582;2022-11-20T04:16:28;21.50;;;14.25;;
71236;SDS011;58984;51.960;5.582;2022-11-20T04:18:56;28.45;;;14.30;;
71236;SDS011;58984;51.960;5.582;2022-11-20T04:21:26;21.38;;;13.60;;
71236;SDS011;58984;51.960;5.582;2022-11-20T04:23:52;23.35;;;14.70;;
71236;SDS011;58984;51.960;5.582;2022-11-20T04:26:19;20.33;;;14.18;;
71236;SDS011;58984;51.960;5.582;2022-11-20T04:28:46;23.83;;;13.18;;
71236;SDS011;58984;51.960;5.582;2022-11-20T04:31:12;25.40;;;15.35;;
71236;SDS011;58984;51.960;5.582;2022-11-20T04:33:40;19.58;;;14.02;;
71236;SDS011;58984;51.960;5.582;2022-11-20T04:36:07;25.80;;;15.65;;
71236;SDS011;58984;51.960;5.582;2022-11-20T04:38:50;23.67;;;14.38;;
71236;SDS011;58984;51.960;5.582;2022-11-20T04:41:27;22.02;;;14.45;;
71236;SDS011;58984;51.960;5.582;2022-11-20T04:43:55;24.58;;;13.63;;
71236;SDS011;58984;51.960;5.582;2022-11-20T04:46:24;20.35;;;13.85;;
71236;SDS011;58984;51.960;5.582;2022-11-20T04:48:51;22.90;;;14.02;;
71236;SDS011;58984;51.960;5.582;2022-11-20T04:51:17;21.27;;;12.88;;
71236;SDS011;58984;51.960;5.582;2022-11-20T04:53:42;20.70;;;13.70;;
71236;SDS011;58984;51.960;5.582;2022-11-20T04:56:09;17.35;;;13.35;;
71236;SDS011;58984;51.960;5.582;2022-11-20T04:58:37;23.92;;;14.32;;
71236;SDS011;58984;51.960;5.582;2022-11-20T05:01:13;22.25;;;14.07;;
71236;SDS011;58984;51.960;5.582;2022-11-20T05:03:41;18.65;;;13.93;;
71236;SDS011;58984;51.960;5.582;2022-11-20T05:06:07;22.20;;;13.32;;
71236;SDS011;58984;51.960;5.582;2022-11-20T05:08:34;26.00;;;14.20;;
71236;SDS011;58984;51.960;5.582;2022-11-20T05:11:00;23.33;;;13.77;;
71236;SDS011;58984;51.960;5.582;2022-11-20T05:13:28;20.55;;;13.80;;
71236;SDS011;58984;51.960;5.582;2022-11-20T05:15:53;21.65;;;13.88;;
71236;SDS011;58984;51.960;5.582;2022-11-20T05:18:19;25.73;;;14.45;;
71236;SDS011;58984;51.960;5.582;2022-11-20T05:20:45;19.63;;;14.15;;
71236;SDS011;58984;51.960;5.582;2022-11-20T05:23:10;21.20;;;14.30;;
71236;SDS011;58984;51.960;5.582;2022-11-20T05:25:36;30.35;;;15.20;;
71236;SDS011;58984;51.960;5.582;2022-11-20T05:28:02;24.27;;;15.77;;
71236;SDS011;58984;51.960;5.582;2022-11-20T05:30:27;25.63;;;16.15;;
71236;SDS011;58984;51.960;5.582;2022-11-20T05:32:53;25.80;;;15.32;;
71236;SDS011;58984;51.960;5.582;2022-11-20T05:35:18;23.25;;;15.07;;
71236;SDS011;58984;51.960;5.582;2022-11-20T05:37:45;24.83;;;15.98;;
71236;SDS011;58984;51.960;5.582;2022-11-20T05:40:10;23.63;;;15.45;;
71236;SDS011;58984;51.960;5.582;2022-11-20T05:42:36;19.45;;;14.82;;
71236;SDS011;58984;51.960;5.582;2022-11-20T05:45:03;24.50;;;15.70;;
71236;SDS011;58984;51.960;5.582;2022-11-20T05:47:31;23.52;;;15.48;;
71236;SDS011;58984;51.960;5.582;2022-11-20T05:49:58;26.38;;;15.60;;
71236;SDS011;58984;51.960;5.582;2022-11-20T05:52:24;25.00;;;15.43;;
71236;SDS011;58984;51.960;5.582;2022-11-20T05:54:49;24.15;;;15.90;;
71236;SDS011;58984;51.960;5.582;2022-11-20T05:57:15;24.63;;;14.50;;
71236;SDS011;58984;51.960;5.582;2022-11-20T05:59:41;19.55;;;14.43;;
71236;SDS011;58984;51.960;5.582;2022-11-20T06:02:07;21.65;;;15.40;;
71236;SDS011;58984;51.960;5.582;2022-11-20T06:04:33;22.67;;;14.45;;
71236;SDS011;58984;51.960;5.582;2022-11-20T06:06:58;24.80;;;16.33;;
71236;SDS011;58984;51.960;5.582;2022-11-20T06:09:24;23.58;;;16.00;;
71236;SDS011;58984;51.960;5.582;2022-11-20T06:11:49;25.00;;;15.95;;
71236;SDS011;58984;51.960;5.582;2022-11-20T06:14:15;26.33;;;16.08;;
71236;SDS011;58984;51.960;5.582;2022-11-20T06:16:40;23.02;;;15.43;;
71236;SDS011;58984;51.960;5.582;2022-11-20T06:19:06;26.77;;;15.80;;
71236;SDS011;58984;51.960;5.582;2022-11-20T06:21:31;25.70;;;16.02;;
71236;SDS011;58984;51.960;5.582;2022-11-20T06:23:57;22.15;;;15.30;;
71236;SDS011;58984;51.960;5.582;2022-11-20T06:26:24;25.90;;;16.30;;
71236;SDS011;58984;51.960;5.582;2022-11-20T06:28:52;26.17;;;15.50;;
71236;SDS011;58984;51.960;5.582;2022-11-20T06:31:20;26.67;;;15.77;;
71236;SDS011;58984;51.960;5.582;2022-11-20T06:33:47;24.33;;;14.73;;
71236;SDS011;58984;51.960;5.582;2022-11-20T06:36:14;25.58;;;15.70;;
71236;SDS011;58984;51.960;5.582;2022-11-20T06:38:41;26.15;;;16.30;;
71236;SDS011;58984;51.960;5.582;2022-11-20T06:41:08;24.40;;;15.93;;
71236;SDS011;58984;51.960;5.582;2022-11-20T06:43:37;20.70;;;14.48;;
71236;SDS011;58984;51.960;5.582;2022-11-20T06:46:03;24.70;;;14.75;;
71236;SDS011;58984;51.960;5.582;2022-11-20T06:48:29;26.65;;;15.48;;
71236;SDS011;58984;51.960;5.582;2022-11-20T06:50:55;24.40;;;15.52;;
71236;SDS011;58984;51.960;5.582;2022-11-20T06:53:22;20.92;;;14.52;;
71236;SDS011;58984;51.960;5.582;2022-11-20T06:55:48;24.73;;;14.70;;
71236;SDS011;58984;51.960;5.582;2022-11-20T06:58:15;21.67;;;14.50;;
71236;SDS011;58984;51.960;5.582;2022-11-20T07:00:41;24.63;;;14.48;;
71236;SDS011;58984;51.960;5.582;2022-11-20T07:03:08;22.85;;;14.98;;
71236;SDS011;58984;51.960;5.582;2022-11-20T07:05:34;22.42;;;15.02;;
71236;SDS011;58984;51.960;5.582;2022-11-20T07:08:01;22.73;;;14.43;;
71236;SDS011;58984;51.960;5.582;2022-11-20T07:10:28;24.48;;;14.68;;
71236;SDS011;58984;51.960;5.582;2022-11-20T07:12:54;22.05;;;14.50;;
71236;SDS011;58984;51.960;5.582;2022-11-20T07:15:20;26.63;;;14.80;;
71236;SDS011;58984;51.960;5.582;2022-11-20T07:17:47;26.95;;;16.10;;
71236;SDS011;58984;51.960;5.582;2022-11-20T07:20:13;21.30;;;14.13;;
71236;SDS011;58984;51.960;5.582;2022-11-20T07:22:40;23.00;;;14.50;;
71236;SDS011;58984;51.960;5.582;2022-11-20T07:25:05;27.30;;;15.57;;
71236;SDS011;58984;51.960;5.582;2022-11-20T07:27:32;20.60;;;14.75;;
71236;SDS011;58984;51.960;5.582;2022-11-20T07:29:58;24.33;;;14.75;;
71236;SDS011;58984;51.960;5.582;2022-11-20T07:32:23;22.85;;;14.88;;
71236;SDS011;58984;51.960;5.582;2022-11-20T07:34:49;22.95;;;15.05;;
71236;SDS011;58984;51.960;5.582;2022-11-20T07:37:15;23.55;;;14.68;;
71236;SDS011;58984;51.960;5.582;2022-11-20T07:39:41;22.77;;;14.35;;
71236;SDS011;58984;51.960;5.582;2022-11-20T07:42:07;21.35;;;15.25;;
71236;SDS011;58984;51.960;5.582;2022-11-20T07:44:33;23.80;;;14.98;;
71236;SDS011;58984;51.960;5.582;2022-11-20T07:46:59;23.77;;;14.90;;
71236;SDS011;58984;51.960;5.582;2022-11-20T07:49:25;22.55;;;15.65;;
71236;SDS011;58984;51.960;5.582;2022-11-20T07:51:50;23.60;;;15.13;;
71236;SDS011;58984;51.960;5.582;2022-11-20T07:54:18;22.73;;;15.68;;
71236;SDS011;58984;51.960;5.582;2022-11-20T07:56:44;25.23;;;14.93;;
71236;SDS011;58984;51.960;5.582;2022-11-20T07:59:10;21.27;;;13.88;;
71236;SDS011;58984;51.960;5.582;2022-11-20T08:01:36;22.48;;;14.73;;
71236;SDS011;58984;51.960;5.582;2022-11-20T08:04:02;26.77;;;15.70;;
71236;SDS011;58984;51.960;5.582;2022-11-20T08:06:28;23.70;;;14.68;;
71236;SDS011;58984;51.960;5.582;2022-11-20T08:08:54;27.08;;;15.85;;
71236;SDS011;58984;51.960;5.582;2022-11-20T08:11:19;21.52;;;15.52;;
71236;SDS011;58984;51.960;5.582;2022-11-20T08:14:03;25.40;;;15.80;;
71236;SDS011;58984;51.960;5.582;2022-11-20T08:16:39;21.20;;;14.73;;
71236;SDS011;58984;51.960;5.582;2022-11-20T08:19:05;24.15;;;15.80;;
71236;SDS011;58984;51.960;5.582;2022-11-20T08:21:32;26.13;;;16.38;;
71236;SDS011;58984;51.960;5.582;2022-11-20T08:23:58;29.33;;;16.52;;
71236;SDS011;58984;51.960;5.582;2022-11-20T08:26:24;23.10;;;15.50;;
71236;SDS011;58984;51.960;5.582;2022-11-20T08:28:53;29.30;;;15.73;;
71236;SDS011;58984;51.960;5.582;2022-11-20T08:33:49;25.63;;;16.40;;
71236;SDS011;58984;51.960;5.582;2022-11-20T08:36:15;22.98;;;15.50;;
71236;SDS011;58984;51.960;5.582;2022-11-20T08:38:41;26.45;;;16.00;;
71236;SDS011;58984;51.960;5.582;2022-11-20T08:41:07;27.00;;;16.10;;
71236;SDS011;58984;51.960;5.582;2022-11-20T08:43:52;25.50;;;16.17;;
71236;SDS011;58984;51.960;5.582;2022-11-20T08:46:23;27.35;;;16.35;;
71236;SDS011;58984;51.960;5.582;2022-11-20T08:48:50;23.50;;;17.20;;
71236;SDS011;58984;51.960;5.582;2022-11-20T08:51:16;26.95;;;16.42;;
71236;SDS011;58984;51.960;5.582;2022-11-20T08:53:42;25.08;;;16.02;;
71236;SDS011;58984;51.960;5.582;2022-11-20T08:56:07;28.80;;;17.40;;
71236;SDS011;58984;51.960;5.582;2022-11-20T08:58:35;33.08;;;17.55;;
71236;SDS011;58984;51.960;5.582;2022-11-20T09:01:01;26.38;;;16.08;;
71236;SDS011;58984;51.960;5.582;2022-11-20T09:03:27;28.42;;;17.23;;
71236;SDS011;58984;51.960;5.582;2022-11-20T09:06:00;30.20;;;17.98;;
71236;SDS011;58984;51.960;5.582;2022-11-20T09:08:27;27.67;;;16.63;;
71236;SDS011;58984;51.960;5.582;2022-11-20T09:10:53;27.02;;;16.65;;
71236;SDS011;58984;51.960;5.582;2022-11-20T09:13:20;27.48;;;16.70;;
71236;SDS011;58984;51.960;5.582;2022-11-20T09:15:46;27.92;;;17.17;;
71236;SDS011;58984;51.960;5.582;2022-11-20T09:18:12;27.35;;;17.27;;
71236;SDS011;58984;51.960;5.582;2022-11-20T09:20:38;29.15;;;17.20;;
71236;SDS011;58984;51.960;5.582;2022-11-20T09:23:04;24.25;;;17.58;;
71236;SDS011;58984;51.960;5.582;2022-11-20T09:25:29;30.55;;;18.30;;
71236;SDS011;58984;51.960;5.582;2022-11-20T09:27:55;28.75;;;16.77;;
71236;SDS011;58984;51.960;5.582;2022-11-20T09:30:22;27.90;;;16.92;;
71236;SDS011;58984;51.960;5.582;2022-11-20T09:32:48;29.05;;;17.52;;
71236;SDS011;58984;51.960;5.582;2022-11-20T09:35:13;28.30;;;18.08;;
71236;SDS011;58984;51.960;5.582;2022-11-20T09:37:39;28.48;;;18.15;;
71236;SDS011;58984;51.960;5.582;2022-11-20T09:40:05;28.50;;;18.13;;
71236;SDS011;58984;51.960;5.582;2022-11-20T09:42:47;28.02;;;17.67;;
71236;SDS011;58984;51.960;5.582;2022-11-20T09:45:44;29.58;;;17.52;;
71236;SDS011;58984;51.960;5.582;2022-11-20T09:56:59;32.03;;;18.42;;
71236;SDS011;58984;51.960;5.582;2022-11-20T09:59:43;27.80;;;17.90;;
71236;SDS011;58984;51.960;5.582;2022-11-20T10:04:57;31.90;;;17.75;;
71236;SDS011;58984;51.960;5.582;2022-11-20T10:07:32;27.13;;;18.20;;
71236;SDS011;58984;51.960;5.582;2022-11-20T10:10:45;29.73;;;18.05;;
71236;SDS011;58984;51.960;5.582;2022-11-20T10:28:54;29.35;;;18.38;;
71236;SDS011;58984;51.960;5.582;2022-11-20T10:31:36;32.10;;;19.90;;
71236;SDS011;58984;51.960;5.582;2022-11-20T10:37:11;29.60;;;19.02;;
71236;SDS011;58984;51.960;5.582;2022-11-20T10:39:47;29.98;;;19.92;;
71236;SDS011;58984;51.960;5.582;2022-11-20T10:42:37;35.83;;;21.25;;
71236;SDS011;58984;51.960;5.582;2022-11-20T10:47:58;33.08;;;20.52;;
71236;SDS011;58984;51.960;5.582;2022-11-20T10:50:32;34.58;;;20.83;;
71236;SDS011;58984;51.960;5.582;2022-11-20T10:53:05;30.33;;;19.83;;
71236;SDS011;58984;51.960;5.582;2022-11-20T10:55:46;36.25;;;20.60;;
71236;SDS011;58984;51.960;5.582;2022-11-20T11:01:04;33.15;;;19.67;;
71236;SDS011;58984;51.960;5.582;2022-11-20T11:03:41;30.20;;;21.00;;
71236;SDS011;58984;51.960;5.582;2022-11-20T11:06:14;35.35;;;21.05;;
71236;SDS011;58984;51.960;5.582;2022-11-20T11:08:50;34.13;;;21.20;;
71236;SDS011;58984;51.960;5.582;2022-11-20T11:13:48;34.20;;;21.42;;
71236;SDS011;58984;51.960;5.582;2022-11-20T11:16:26;33.75;;;20.73;;
71236;SDS011;58984;51.960;5.582;2022-11-20T11:19:03;35.30;;;19.95;;
71236;SDS011;58984;51.960;5.582;2022-11-20T11:21:29;34.78;;;20.95;;
71236;SDS011;58984;51.960;5.582;2022-11-20T11:23:59;33.95;;;20.27;;
71236;SDS011;58984;51.960;5.582;2022-11-20T11:26:27;32.30;;;18.70;;
71236;SDS011;58984;51.960;5.582;2022-11-20T11:28:57;31.42;;;19.85;;
71236;SDS011;58984;51.960;5.582;2022-11-20T11:31:24;31.75;;;18.73;;
71236;SDS011;58984;51.960;5.582;2022-11-20T11:33:50;37.72;;;20.27;;
71236;SDS011;58984;51.960;5.582;2022-11-20T11:36:17;31.90;;;18.88;;
71236;SDS011;58984;51.960;5.582;2022-11-20T11:38:48;34.03;;;19.98;;
71236;SDS011;58984;51.960;5.582;2022-11-20T11:41:21;34.65;;;20.50;;
71236;SDS011;58984;51.960;5.582;2022-11-20T11:43:57;36.67;;;20.45;;
71236;SDS011;58984;51.960;5.582;2022-11-20T11:46:53;34.20;;;21.17;;
71236;SDS011;58984;51.960;5.582;2022-11-20T11:49:20;43.42;;;23.80;;
71236;SDS011;58984;51.960;5.582;2022-11-20T11:54:34;36.65;;;21.35;;
71236;SDS011;58984;51.960;5.582;2022-11-20T11:57:20;33.67;;;20.92;;
71236;SDS011;58984;51.960;5.582;2022-11-20T12:00:00;34.42;;;20.33;;
71236;SDS011;58984;51.960;5.582;2022-11-20T12:07:57;36.75;;;21.25;;
71236;SDS011;58984;51.960;5.582;2022-11-20T12:10:43;35.38;;;21.60;;
71236;SDS011;58984;51.960;5.582;2022-11-20T12:15:50;34.28;;;19.58;;
71236;SDS011;58984;51.960;5.582;2022-11-20T12:18:20;37.00;;;20.30;;
71236;SDS011;58984;51.960;5.582;2022-11-20T12:21:05;34.90;;;21.65;;
71236;SDS011;58984;51.960;5.582;2022-11-20T12:29:20;34.83;;;21.33;;
71236;SDS011;58984;51.960;5.582;2022-11-20T12:37:34;39.95;;;24.35;;
71236;SDS011;58984;51.960;5.582;2022-11-20T12:42:58;33.40;;;22.35;;
71236;SDS011;58984;51.960;5.582;2022-11-20T12:48:46;37.50;;;22.92;;
71236;SDS011;58984;51.960;5.582;2022-11-20T13:04:55;39.65;;;21.45;;
71236;SDS011;58984;51.960;5.582;2022-11-20T13:07:54;39.50;;;21.83;;
71236;SDS011;58984;51.960;5.582;2022-11-20T13:10:27;35.10;;;21.58;;
71236;SDS011;58984;51.960;5.582;2022-11-20T13:13:14;33.25;;;21.52;;
71236;SDS011;58984;51.960;5.582;2022-11-20T13:15:55;31.10;;;19.65;;
71236;SDS011;58984;51.960;5.582;2022-11-20T13:18:27;37.45;;;21.00;;
71236;SDS011;58984;51.960;5.582;2022-11-20T13:20:53;30.13;;;19.75;;
71236;SDS011;58984;51.960;5.582;2022-11-20T13:23:23;41.00;;;21.27;;
71236;SDS011;58984;51.960;5.582;2022-11-20T13:25:50;35.28;;;21.27;;
71236;SDS011;58984;51.960;5.582;2022-11-20T13:28:27;36.10;;;20.92;;
71236;SDS011;58984;51.960;5.582;2022-11-20T13:30:55;41.35;;;22.52;;
71236;SDS011;58984;51.960;5.582;2022-11-20T13:33:32;30.88;;;20.17;;
71236;SDS011;58984;51.960;5.582;2022-11-20T13:36:00;36.63;;;21.80;;
71236;SDS011;58984;51.960;5.582;2022-11-20T13:38:26;43.45;;;21.58;;
71236;SDS011;58984;51.960;5.582;2022-11-20T13:40:56;36.58;;;21.65;;
71236;SDS011;58984;51.960;5.582;2022-11-20T13:43:44;30.75;;;20.85;;
71236;SDS011;58984;51.960;5.582;2022-11-20T13:46:13;32.38;;;20.45;;
71236;SDS011;58984;51.960;5.582;2022-11-20T13:48:41;36.55;;;22.83;;
71236;SDS011;58984;51.960;5.582;2022-11-20T13:54:24;45.28;;;22.55;;
71236;SDS011;58984;51.960;5.582;2022-11-20T14:00:15;41.33;;;22.77;;
71236;SDS011;58984;51.960;5.582;2022-11-20T14:05:26;34.58;;;20.77;;
71236;SDS011;58984;51.960;5.582;2022-11-20T14:07:52;36.88;;;20.52;;
71236;SDS011;58984;51.960;5.582;2022-11-20T14:10:19;32.22;;;20.88;;
71236;SDS011;58984;51.960;5.582;2022-11-20T14:12:45;41.10;;;22.60;;
71236;SDS011;58984;51.960;5.582;2022-11-20T14:15:30;37.70;;;21.15;;
71236;SDS011;58984;51.960;5.582;2022-11-20T14:17:57;38.20;;;21.88;;
71236;SDS011;58984;51.960;5.582;2022-11-20T14:22:56;35.30;;;21.05;;
71236;SDS011;58984;51.960;5.582;2022-11-20T14:25:23;31.52;;;21.35;;
71236;SDS011;58984;51.960;5.582;2022-11-20T14:30:24;39.00;;;20.88;;
71236;SDS011;58984;51.960;5.582;2022-11-20T14:33:10;36.85;;;21.83;;
71236;SDS011;58984;51.960;5.582;2022-11-20T14:35:40;34.28;;;21.33;;
71236;SDS011;58984;51.960;5.582;2022-11-20T14:38:14;34.33;;;21.73;;
71236;SDS011;58984;51.960;5.582;2022-11-20T14:40:42;41.65;;;22.35;;
71236;SDS011;58984;51.960;5.582;2022-11-20T14:43:16;34.67;;;22.10;;
71236;SDS011;58984;51.960;5.582;2022-11-20T14:45:46;40.90;;;23.15;;
71236;SDS011;58984;51.960;5.582;2022-11-20T14:48:22;34.83;;;20.88;;
71236;SDS011;58984;51.960;5.582;2022-11-20T14:50:53;37.15;;;20.92;;
71236;SDS011;58984;51.960;5.582;2022-11-20T14:53:22;31.70;;;21.33;;
71236;SDS011;58984;51.960;5.582;2022-11-20T14:55:54;42.65;;;21.40;;
71236;SDS011;58984;51.960;5.582;2022-11-20T14:58:24;34.00;;;22.75;;
71236;SDS011;58984;51.960;5.582;2022-11-20T15:00:56;33.08;;;20.60;;
71236;SDS011;58984;51.960;5.582;2022-11-20T15:03:36;30.55;;;20.25;;
71236;SDS011;58984;51.960;5.582;2022-11-20T15:06:04;33.33;;;22.52;;
71236;SDS011;58984;51.960;5.582;2022-11-20T15:08:30;37.47;;;22.67;;
71236;SDS011;58984;51.960;5.582;2022-11-20T15:10:56;36.22;;;21.35;;
71236;SDS011;58984;51.960;5.582;2022-11-20T15:13:30;38.13;;;21.77;;
71236;SDS011;58984;51.960;5.582;2022-11-20T15:16:01;34.40;;;21.83;;
71236;SDS011;58984;51.960;5.582;2022-11-20T15:18:36;31.92;;;20.55;;
71236;SDS011;58984;51.960;5.582;2022-11-20T15:21:06;34.35;;;22.38;;
71236;SDS011;58984;51.960;5.582;2022-11-20T15:23:35;40.35;;;23.73;;
71236;SDS011;58984;51.960;5.582;2022-11-20T15:26:01;34.30;;;24.48;;
71236;SDS011;58984;51.960;5.582;2022-11-20T15:28:30;40.58;;;25.42;;
71236;SDS011;58984;51.960;5.582;2022-11-20T15:30:58;44.70;;;25.85;;
71236;SDS011;58984;51.960;5.582;2022-11-20T15:33:25;40.28;;;25.15;;
71236;SDS011;58984;51.960;5.582;2022-11-20T15:35:50;34.47;;;22.30;;
71236;SDS011;58984;51.960;5.582;2022-11-20T15:38:16;38.45;;;24.15;;
71236;SDS011;58984;51.960;5.582;2022-11-20T15:40:42;32.45;;;22.52;;
71236;SDS011;58984;51.960;5.582;2022-11-20T15:43:07;39.28;;;23.65;;
71236;SDS011;58984;51.960;5.582;2022-11-20T15:45:44;43.03;;;24.95;;
71236;SDS011;58984;51.960;5.582;2022-11-20T15:48:23;34.08;;;23.25;;
71236;SDS011;58984;51.960;5.582;2022-11-20T15:53:27;41.15;;;23.63;;
71236;SDS011;58984;51.960;5.582;2022-11-20T15:55:53;39.95;;;21.98;;
71236;SDS011;58984;51.960;5.582;2022-11-20T15:58:19;34.20;;;21.58;;
71236;SDS011;58984;51.960;5.582;2022-11-20T16:00:45;40.50;;;21.42;;
71236;SDS011;58984;51.960;5.582;2022-11-20T16:03:11;41.40;;;22.13;;
71236;SDS011;58984;51.960;5.582;2022-11-20T16:05:37;31.65;;;21.05;;
71236;SDS011;58984;51.960;5.582;2022-11-20T16:08:03;37.67;;;22.70;;
71236;SDS011;58984;51.960;5.582;2022-11-20T16:10:29;35.85;;;21.65;;
71236;SDS011;58984;51.960;5.582;2022-11-20T16:12:55;36.83;;;21.70;;
71236;SDS011;58984;51.960;5.582;2022-11-20T16:15:39;34.20;;;21.00;;
71236;SDS011;58984;51.960;5.582;2022-11-20T16:18:10;33.22;;;20.15;;
71236;SDS011;58984;51.960;5.582;2022-11-20T16:20:37;32.20;;;21.30;;
71236;SDS011;58984;51.960;5.582;2022-11-20T16:23:04;35.63;;;22.15;;